Time;durP1;ratioP1;P1;durP2;ratioP2;P2;SDS_P1;SDS_P2;PMS_P1;PMS_P2;Temp;Humidity;BMP_temperature;BMP_pressure;BME280_temperature;BME280_humidity;BME280_pressure;Samples;Min_cycle;Max_cycle;Signal;HPM_P1;HPM_P2
2023/04/09 00:00:09;;;;;;;;;;;11.30;76.50;;;;;;5058805;28;19934;-72
2023/04/09 00:02:37;;;;;;;;;;;11.30;76.50;;;;;;5056022;28;20036;-72
2023/04/09 00:05:03;;;;;;;;;;;11.30;76.50;;;;;;5059710;28;19937;-72
2023/04/09 00:07:30;;;;;;;;;;;11.20;76.40;;;;;;5052334;28;19936;-68
2023/04/09 00:09:57;;;;;;;;;;;11.20;76.50;;;;;;5046871;28;19928;-72
2023/04/09 00:12:23;;;;;;;;;;;11.20;76.40;;;;;;5047684;28;19932;-72
2023/04/09 00:14:50;;;;;;;;;;;11.20;76.40;;;;;;5053226;28;19978;-72
2023/04/09 00:17:16;;;;;;;;;;;11.20;76.50;;;;;;5050050;28;20789;-71
2023/04/09 00:19:44;;;;;;;;;;;11.20;76.60;;;;;;5050400;28;19975;-72
2023/04/09 00:22:11;;;;;;;;;;;11.10;76.50;;;;;;5048511;28;19933;-73
2023/04/09 00:24:37;;;;;;;;;;;11.20;76.80;;;;;;5053461;28;20477;-73
2023/04/09 00:27:04;;;;;;;;;;;11.10;76.90;;;;;;5059886;28;19929;-72
2023/04/09 00:29:30;;;;;;;;;;;11.10;76.80;;;;;;5052692;28;19940;-70
2023/04/09 00:31:57;;;;;;;;;;;11.10;76.80;;;;;;5054346;28;19939;-73
2023/04/09 00:34:23;;;;;;;;;;;11.10;76.80;;;;;;5052485;28;20495;-70
2023/04/09 00:36:51;;;;;;;;;;;11.70;77.10;;;;;;5049549;28;19929;-71
2023/04/09 00:39:18;;;;;;;;;;;11.10;76.70;;;;;;5047003;28;19935;-71
2023/04/09 00:41:44;;;;;;;;;;;11.10;76.70;;;;;;5057237;28;19935;-72
2023/04/09 00:44:11;;;;;;;;;;;11.00;76.70;;;;;;5048820;28;19940;-73
2023/04/09 00:46:38;;;;;;;;;;;11.00;76.70;;;;;;5059926;28;20406;-74
2023/04/09 00:49:05;;;;;;;;;;;11.00;76.70;;;;;;5042731;28;19928;-72
2023/04/09 00:51:31;;;;;;;;;;;11.90;77.30;;;;;;5048587;28;20351;-70
2023/04/09 00:53:59;;;;;;;;;;;11.00;76.70;;;;;;5048677;28;20290;-72
2023/04/09 00:56:26;;;;;;;;;;;11.00;76.70;;;;;;5058099;28;19948;-72
2023/04/09 00:58:54;;;;;;;;;;;11.00;76.90;;;;;;5051249;28;19990;-72
2023/04/09 01:01:20;;;;;;;;;;;11.00;76.80;;;;;;5054928;28;19964;-71
2023/04/09 01:03:47;;;;;;;;;;;10.90;76.80;;;;;;5061202;28;19932;-72
2023/04/09 01:06:17;;;;;;;;;;;10.90;76.90;;;;;;5049607;28;19929;-70
2023/04/09 01:08:47;;;;;;;;;;;10.90;76.90;;;;;;5055340;28;19932;-72
2023/04/09 01:11:20;;;;;;;;;;;10.90;77.00;;;;;;5062153;28;20396;-73
2023/04/09 01:13:49;;;;;;;;;;;10.90;77.10;;;;;;5058900;28;19928;-73
2023/04/09 01:16:16;;;;;;;;;;;10.90;77.10;;;;;;5061921;28;20305;-72
2023/04/09 01:18:44;;;;;;;;;;;10.90;77.20;;;;;;5056209;28;20355;-73
2023/04/09 01:21:12;;;;;;;;;;;10.80;77.20;;;;;;5050741;28;19968;-73
2023/04/09 01:23:45;;;;;;;;;;;10.80;77.20;;;;;;5055868;28;19928;-72
2023/04/09 01:26:18;;;;;;;;;;;10.80;77.20;;;;;;5053559;28;19933;-72
2023/04/09 01:28:47;;;;;;;;;;;10.80;77.20;;;;;;5047621;28;19944;-72
2023/04/09 01:31:15;;;;;;;;;;;10.80;77.30;;;;;;5057832;28;19982;-72
2023/04/09 01:33:42;;;;;;;;;;;10.80;77.30;;;;;;5054978;28;19937;-72
2023/04/09 01:36:09;;;;;;;;;;;10.80;77.30;;;;;;5053495;28;19936;-72
2023/04/09 01:38:36;;;;;;;;;;;10.70;77.20;;;;;;5051707;28;19936;-70
2023/04/09 01:41:03;;;;;;;;;;;10.70;77.20;;;;;;5055394;28;19925;-72
2023/04/09 01:43:30;;;;;;;;;;;10.70;77.30;;;;;;5053689;28;19924;-69
2023/04/09 01:45:59;;;;;;;;;;;10.70;77.30;;;;;;5059340;28;19948;-73
2023/04/09 01:48:26;;;;;;;;;;;10.70;77.40;;;;;;5057181;28;20681;-70
2023/04/09 01:50:53;;;;;;;;;;;10.70;77.40;;;;;;5061860;28;19940;-72
2023/04/09 01:53:21;;;;;;;;;;;10.70;77.40;;;;;;5051465;28;20299;-71
2023/04/09 01:55:47;;;;;;;;;;;10.60;77.40;;;;;;5055638;28;20704;-72
2023/04/09 01:58:14;;;;;;;;;;;10.60;77.40;;;;;;5059306;28;20662;-73
2023/04/09 02:00:44;;;;;;;;;;;10.60;77.40;;;;;;5047938;28;19933;-73
2023/04/09 02:03:15;;;;;;;;;;;10.60;77.40;;;;;;5060646;28;19924;-72
2023/04/09 02:05:44;;;;;;;;;;;10.60;77.50;;;;;;5055426;28;21829;-72
2023/04/09 02:08:12;;;;;;;;;;;10.60;77.50;;;;;;5052395;28;19932;-73
2023/04/09 02:10:40;;;;;;;;;;;10.60;77.50;;;;;;5057470;28;19932;-73
2023/04/09 02:13:09;;;;;;;;;;;10.60;77.50;;;;;;5057220;28;19929;-73
2023/04/09 02:15:37;;;;;;;;;;;10.60;77.50;;;;;;5052025;28;19928;-72
2023/04/09 02:18:03;;;;;;;;;;;10.50;77.60;;;;;;5055018;28;19928;-71
2023/04/09 02:20:31;;;;;;;;;;;10.60;77.60;;;;;;5052323;28;19933;-70
2023/04/09 02:22:58;;;;;;;;;;;10.50;77.60;;;;;;5057869;28;19929;-72
2023/04/09 02:25:24;;;;;;;;;;;10.50;77.60;;;;;;5057201;28;19928;-73
2023/04/09 02:27:51;;;;;;;;;;;10.50;77.60;;;;;;5057219;28;19936;-70
2023/04/09 02:30:17;;;;;;;;;;;10.50;77.60;;;;;;5059949;28;19936;-73
2023/04/09 02:32:44;;;;;;;;;;;10.50;77.70;;;;;;5061710;28;19928;-73
2023/04/09 02:35:10;;;;;;;;;;;10.40;77.60;;;;;;5053901;28;19979;-73
2023/04/09 02:37:38;;;;;;;;;;;10.50;77.70;;;;;;5058224;28;19928;-72
2023/04/09 02:40:05;;;;;;;;;;;10.50;77.70;;;;;;5055675;28;19940;-72
2023/04/09 02:42:32;;;;;;;;;;;10.50;77.70;;;;;;5053856;28;20444;-70
2023/04/09 02:44:58;;;;;;;;;;;10.40;77.70;;;;;;5054170;28;19932;-72
2023/04/09 02:47:26;;;;;;;;;;;10.40;77.80;;;;;;5058233;28;19981;-72
2023/04/09 02:49:52;;;;;;;;;;;10.40;77.80;;;;;;5051353;28;19982;-72
2023/04/09 02:52:21;;;;;;;;;;;10.40;77.80;;;;;;5057417;28;19929;-70
2023/04/09 02:54:49;;;;;;;;;;;10.40;77.80;;;;;;5056192;28;19928;-71
2023/04/09 02:57:16;;;;;;;;;;;10.40;77.90;;;;;;5052835;28;19928;-71
2023/04/09 02:59:42;;;;;;;;;;;10.40;77.90;;;;;;5049353;28;19936;-72
2023/04/09 03:02:09;;;;;;;;;;;10.70;78.20;;;;;;5059461;28;19981;-72
2023/04/09 03:04:35;;;;;;;;;;;10.30;78.00;;;;;;5056381;28;20516;-72
2023/04/09 03:07:02;;;;;;;;;;;10.30;78.00;;;;;;5052503;28;19932;-69
2023/04/09 03:09:29;;;;;;;;;;;10.30;78.10;;;;;;5046380;28;19978;-73
2023/04/09 03:11:57;;;;;;;;;;;10.30;78.20;;;;;;5053446;28;20035;-71
2023/04/09 03:14:23;;;;;;;;;;;10.30;78.20;;;;;;5059138;28;19933;-71
2023/04/09 03:16:50;;;;;;;;;;;10.30;78.30;;;;;;5052108;28;19928;-68
2023/04/09 03:19:16;;;;;;;;;;;10.30;78.30;;;;;;5053674;28;20690;-69
2023/04/09 03:21:43;;;;;;;;;;;10.30;78.30;;;;;;5060143;28;21322;-73
2023/04/09 03:24:09;;;;;;;;;;;10.40;78.40;;;;;;5057942;28;20014;-73
2023/04/09 03:26:36;;;;;;;;;;;10.20;78.30;;;;;;5058421;28;20349;-70
2023/04/09 03:29:05;;;;;;;;;;;10.20;78.40;;;;;;5053558;28;19950;-70
2023/04/09 03:31:31;;;;;;;;;;;10.20;78.40;;;;;;5053092;28;19967;-69
2023/04/09 03:33:58;;;;;;;;;;;10.20;78.40;;;;;;5054154;28;19936;-72
2023/04/09 03:36:26;;;;;;;;;;;10.20;78.40;;;;;;5053737;28;20669;-72
2023/04/09 03:38:53;;;;;;;;;;;10.20;78.50;;;;;;5052590;28;20016;-71
2023/04/09 03:41:19;;;;;;;;;;;10.30;78.60;;;;;;5054400;28;19928;-71
2023/04/09 03:43:46;;;;;;;;;;;10.20;78.60;;;;;;5047816;28;20405;-70
2023/04/09 03:46:14;;;;;;;;;;;10.10;79.30;;;;;;5052693;28;19932;-72
2023/04/09 03:48:41;;;;;;;;;;;10.10;78.60;;;;;;5047254;28;19939;-72
2023/04/09 03:51:11;;;;;;;;;;;10.10;78.80;;;;;;5053767;28;19935;-72
2023/04/09 03:53:37;;;;;;;;;;;10.10;78.70;;;;;;5051518;28;19978;-72
2023/04/09 03:56:04;;;;;;;;;;;10.10;78.80;;;;;;5052075;28;19928;-72
2023/04/09 03:58:31;;;;;;;;;;;10.10;78.80;;;;;;5048609;28;19936;-69
2023/04/09 04:00:57;;;;;;;;;;;10.10;78.90;;;;;;5054293;28;20470;-73
2023/04/09 04:03:25;;;;;;;;;;;10.10;78.90;;;;;;5051810;28;19929;-72
2023/04/09 04:05:51;;;;;;;;;;;10.10;78.90;;;;;;5049471;28;19932;-72
2023/04/09 04:08:18;;;;;;;;;;;10.00;78.80;;;;;;5057072;28;19936;-71
2023/04/09 04:10:45;;;;;;;;;;;10.00;78.90;;;;;;5052146;28;19955;-71
2023/04/09 04:13:11;;;;;;;;;;;10.00;78.90;;;;;;5053719;28;19928;-72
2023/04/09 04:15:39;;;;;;;;;;;10.00;78.90;;;;;;5051149;28;19979;-72
2023/04/09 04:18:06;;;;;;;;;;;10.00;79.00;;;;;;5058133;28;20443;-70
2023/04/09 04:20:34;;;;;;;;;;;10.00;79.00;;;;;;5051366;28;19925;-70
2023/04/09 04:23:00;;;;;;;;;;;10.00;79.00;;;;;;5051475;28;19931;-69
2023/04/09 04:25:27;;;;;;;;;;;10.00;79.10;;;;;;5055675;28;20386;-74
2023/04/09 04:27:54;;;;;;;;;;;9.90;79.00;;;;;;5050411;28;19924;-72
2023/04/09 04:30:20;;;;;;;;;;;9.90;79.10;;;;;;5050446;28;20023;-72
2023/04/09 04:32:47;;;;;;;;;;;9.90;79.20;;;;;;5047519;28;20453;-73
2023/04/09 04:35:14;;;;;;;;;;;9.90;79.20;;;;;;5047387;28;19932;-72
2023/04/09 04:37:42;;;;;;;;;;;9.90;79.30;;;;;;5052104;28;19928;-73
2023/04/09 04:40:09;;;;;;;;;;;9.90;79.30;;;;;;5049943;28;19935;-72
2023/04/09 04:42:35;;;;;;;;;;;9.90;79.30;;;;;;5053644;28;19939;-72
2023/04/09 04:45:02;;;;;;;;;;;9.90;79.40;;;;;;5054295;28;19935;-72
2023/04/09 04:47:28;;;;;;;;;;;9.80;79.40;;;;;;5052844;28;20361;-72
2023/04/09 04:49:55;;;;;;;;;;;9.80;79.40;;;;;;5052192;28;19932;-71
2023/04/09 04:52:21;;;;;;;;;;;9.80;79.40;;;;;;5055834;28;19935;-72
2023/04/09 04:54:49;;;;;;;;;;;9.80;79.50;;;;;;5051249;28;19932;-69
2023/04/09 04:57:16;;;;;;;;;;;9.70;79.50;;;;;;5047358;28;20330;-69
2023/04/09 04:59:42;;;;;;;;;;;9.70;79.40;;;;;;5045282;28;20369;-72
2023/04/09 05:02:09;;;;;;;;;;;9.70;79.40;;;;;;5047751;28;19999;-74
2023/04/09 05:04:35;;;;;;;;;;;9.70;79.50;;;;;;5049615;28;20477;-73
2023/04/09 05:07:02;;;;;;;;;;;9.60;79.40;;;;;;5048814;28;19924;-70
2023/04/09 05:09:28;;;;;;;;;;;9.60;79.40;;;;;;5048594;28;19981;-72
2023/04/09 05:11:56;;;;;;;;;;;9.60;79.40;;;;;;5053644;28;19924;-71
2023/04/09 05:14:24;;;;;;;;;;;9.60;79.40;;;;;;5059036;28;20558;-73
2023/04/09 05:16:51;;;;;;;;;;;9.60;79.50;;;;;;5049268;28;19939;-70
2023/04/09 05:19:17;;;;;;;;;;;9.50;79.40;;;;;;5054551;28;19940;-72
2023/04/09 05:21:44;;;;;;;;;;;9.50;79.50;;;;;;5046811;28;20397;-74
2023/04/09 05:24:10;;;;;;;;;;;9.50;79.40;;;;;;5052181;28;20386;-72
2023/04/09 05:26:37;;;;;;;;;;;9.50;79.40;;;;;;5052621;28;19928;-70
2023/04/09 05:29:05;;;;;;;;;;;9.50;79.50;;;;;;5053185;28;19929;-72
2023/04/09 05:31:32;;;;;;;;;;;9.40;79.50;;;;;;5050298;28;20008;-69
2023/04/09 05:33:58;;;;;;;;;;;9.40;79.40;;;;;;5053272;28;19928;-72
2023/04/09 05:36:25;;;;;;;;;;;9.40;79.40;;;;;;5048221;28;20338;-71
2023/04/09 05:38:51;;;;;;;;;;;9.40;79.40;;;;;;5049057;28;19990;-71
2023/04/09 05:41:18;;;;;;;;;;;9.40;79.40;;;;;;5054923;28;20033;-70
2023/04/09 05:43:44;;;;;;;;;;;9.30;79.40;;;;;;5052633;28;19936;-72
2023/04/09 05:46:12;;;;;;;;;;;9.30;79.40;;;;;;5054564;28;19990;-73
2023/04/09 05:48:39;;;;;;;;;;;9.30;79.50;;;;;;5058093;28;20456;-72
2023/04/09 05:51:05;;;;;;;;;;;9.30;79.40;;;;;;5050813;28;19935;-71
2023/04/09 05:53:32;;;;;;;;;;;9.30;79.40;;;;;;5051346;28;19929;-70
2023/04/09 05:55:58;;;;;;;;;;;9.30;79.50;;;;;;5049570;28;19929;-71
2023/04/09 05:58:26;;;;;;;;;;;9.30;79.50;;;;;;5056711;28;19929;-70
2023/04/09 06:00:52;;;;;;;;;;;9.30;79.60;;;;;;5052526;28;21501;-72
2023/04/09 06:03:20;;;;;;;;;;;9.30;79.60;;;;;;5053332;28;19932;-72
2023/04/09 06:05:47;;;;;;;;;;;9.30;79.60;;;;;;5050724;28;19936;-71
2023/04/09 06:08:13;;;;;;;;;;;9.30;79.70;;;;;;5056102;28;19952;-71
2023/04/09 06:10:40;;;;;;;;;;;9.20;79.60;;;;;;5047423;28;20019;-72
2023/04/09 06:13:06;;;;;;;;;;;9.20;79.70;;;;;;5052962;28;20718;-70
2023/04/09 06:15:33;;;;;;;;;;;9.30;79.80;;;;;;5052284;28;19932;-69
2023/04/09 06:18:00;;;;;;;;;;;9.20;79.80;;;;;;5059845;28;19936;-70
2023/04/09 06:20:27;;;;;;;;;;;9.30;79.90;;;;;;5052919;28;20031;-69
2023/04/09 06:22:54;;;;;;;;;;;9.20;79.80;;;;;;5051763;28;19936;-72
2023/04/09 06:25:21;;;;;;;;;;;9.20;79.80;;;;;;5050004;28;19929;-68
2023/04/09 06:27:47;;;;;;;;;;;9.20;79.90;;;;;;5056931;28;19982;-71
2023/04/09 06:30:14;;;;;;;;;;;9.20;79.90;;;;;;5046544;28;20314;-71
2023/04/09 06:32:40;;;;;;;;;;;9.20;79.90;;;;;;5049452;28;19952;-71
2023/04/09 06:35:07;;;;;;;;;;;9.30;80.20;;;;;;5055936;28;19929;-71
2023/04/09 06:37:35;;;;;;;;;;;9.20;80.00;;;;;;5050400;28;20485;-69
2023/04/09 06:40:02;;;;;;;;;;;9.20;80.00;;;;;;5056412;28;19928;-69
2023/04/09 06:42:28;;;;;;;;;;;9.20;80.00;;;;;;5060577;28;19932;-72
2023/04/09 06:44:55;;;;;;;;;;;9.20;80.00;;;;;;5049937;28;19978;-69
2023/04/09 06:47:21;;;;;;;;;;;9.20;80.00;;;;;;5054644;28;19954;-71
2023/04/09 06:49:48;;;;;;;;;;;9.30;80.00;;;;;;5051148;28;19986;-70
2023/04/09 06:52:15;;;;;;;;;;;9.30;80.00;;;;;;5056381;28;19932;-72
2023/04/09 06:54:43;;;;;;;;;;;9.20;80.00;;;;;;5060847;28;19963;-71
2023/04/09 06:57:09;;;;;;;;;;;9.20;80.10;;;;;;5053900;28;20015;-72
2023/04/09 06:59:36;;;;;;;;;;;9.20;80.10;;;;;;5055780;28;19974;-69
2023/04/09 07:02:02;;;;;;;;;;;9.30;80.10;;;;;;5056512;28;19929;-71
2023/04/09 07:04:29;;;;;;;;;;;9.20;80.10;;;;;;5055730;28;19940;-72
2023/04/09 07:06:58;;;;;;;;;;;9.30;80.10;;;;;;5048526;28;19933;-71
2023/04/09 07:09:24;;;;;;;;;;;9.20;80.10;;;;;;5054196;28;19981;-73
2023/04/09 07:11:52;;;;;;;;;;;9.30;80.20;;;;;;5050981;28;19967;-71
2023/04/09 07:14:19;;;;;;;;;;;9.20;80.10;;;;;;5056901;28;19940;-70
2023/04/09 07:16:45;;;;;;;;;;;9.20;80.10;;;;;;5053013;28;19928;-70
2023/04/09 07:19:12;;;;;;;;;;;9.30;80.20;;;;;;5060101;28;19929;-72
2023/04/09 07:21:38;;;;;;;;;;;9.20;80.20;;;;;;5059107;28;19928;-69
2023/04/09 07:24:05;;;;;;;;;;;9.20;80.30;;;;;;5048419;28;20426;-71
2023/04/09 07:26:32;;;;;;;;;;;9.30;80.30;;;;;;5053639;28;20420;-68
2023/04/09 07:29:00;;;;;;;;;;;9.30;80.30;;;;;;5060566;28;19932;-71
2023/04/09 07:31:27;;;;;;;;;;;9.30;80.40;;;;;;5045492;28;20319;-72
2023/04/09 07:33:54;;;;;;;;;;;9.20;80.30;;;;;;5051241;28;19928;-72
2023/04/09 07:36:20;;;;;;;;;;;9.30;80.50;;;;;;5055183;28;19960;-71
2023/04/09 07:38:47;;;;;;;;;;;9.30;80.50;;;;;;5050667;28;20717;-72
2023/04/09 07:41:14;;;;;;;;;;;9.30;80.50;;;;;;5055451;28;19928;-71
2023/04/09 07:43:40;;;;;;;;;;;9.30;80.60;;;;;;5055456;28;19955;-70
2023/04/09 07:46:08;;;;;;;;;;;9.30;80.60;;;;;;5054954;28;19936;-72
2023/04/09 07:48:35;;;;;;;;;;;9.30;80.70;;;;;;5055051;28;19937;-68
2023/04/09 07:51:01;;;;;;;;;;;9.30;80.70;;;;;;5047885;28;19928;-69
2023/04/09 07:53:28;;;;;;;;;;;9.30;80.80;;;;;;5051381;28;19932;-70
2023/04/09 07:55:55;;;;;;;;;;;9.30;80.90;;;;;;5058026;28;19924;-71
2023/04/09 07:58:21;;;;;;;;;;;9.30;80.80;;;;;;5055685;28;20455;-70
2023/04/09 08:00:48;;;;;;;;;;;9.30;80.80;;;;;;5055328;28;19936;-71
2023/04/09 08:03:16;;;;;;;;;;;9.40;80.90;;;;;;5057190;28;19982;-73
2023/04/09 08:05:43;;;;;;;;;;;9.40;81.00;;;;;;5053885;28;20378;-68
2023/04/09 08:08:09;;;;;;;;;;;9.40;81.10;;;;;;5048932;28;20334;-68
2023/04/09 08:10:36;;;;;;;;;;;9.40;81.10;;;;;;5043737;28;19933;-71
2023/04/09 08:13:02;;;;;;;;;;;9.50;81.20;;;;;;5056309;28;19932;-70
2023/04/09 08:15:29;;;;;;;;;;;9.50;81.20;;;;;;5052225;28;19933;-73
2023/04/09 08:17:55;;;;;;;;;;;9.50;81.20;;;;;;5050165;28;19936;-70
2023/04/09 08:20:23;;;;;;;;;;;9.50;81.30;;;;;;5053293;28;19958;-71
2023/04/09 08:22:50;;;;;;;;;;;9.50;81.30;;;;;;5056380;28;19933;-71
2023/04/09 08:25:16;;;;;;;;;;;9.60;81.40;;;;;;5055057;28;19940;-72
2023/04/09 08:27:43;;;;;;;;;;;9.60;81.30;;;;;;5054936;28;19935;-71
2023/04/09 08:30:10;;;;;;;;;;;9.60;81.10;;;;;;5051858;28;19928;-72
2023/04/09 08:32:37;;;;;;;;;;;9.60;81.10;;;;;;5044780;28;20261;-73
2023/04/09 08:35:03;;;;;;;;;;;9.70;81.00;;;;;;5055708;28;20439;-73
2023/04/09 08:37:31;;;;;;;;;;;9.70;80.80;;;;;;5053682;28;19928;-70
2023/04/09 08:39:58;;;;;;;;;;;9.70;80.70;;;;;;5053129;28;19975;-70
2023/04/09 08:42:25;;;;;;;;;;;9.80;80.60;;;;;;5053028;28;19929;-73
2023/04/09 08:44:51;;;;;;;;;;;9.80;80.50;;;;;;5046985;28;19929;-73
2023/04/09 08:47:19;;;;;;;;;;;9.90;80.50;;;;;;5052695;28;19937;-72
2023/04/09 08:49:47;;;;;;;;;;;9.90;80.30;;;;;;5047593;28;19951;-71
2023/04/09 08:52:15;;;;;;;;;;;10.00;80.10;;;;;;5055454;28;19936;-73
2023/04/09 08:54:43;;;;;;;;;;;10.00;79.90;;;;;;5051969;28;19929;-72
2023/04/09 08:57:09;;;;;;;;;;;10.10;79.80;;;;;;5052369;28;19928;-72
2023/04/09 08:59:36;;;;;;;;;;;10.10;79.70;;;;;;5057104;28;19939;-72
2023/04/09 09:02:09;;;;;;;;;;;10.10;79.50;;;;;;5052771;28;19978;-72
2023/04/09 09:04:46;;;;;;;;;;;10.20;79.40;;;;;;5051575;28;19940;-73
2023/04/09 09:07:12;;;;;;;;;;;10.20;79.30;;;;;;5050023;28;19960;-73
2023/04/09 09:09:51;;;;;;;;;;;10.20;79.00;;;;;;5052417;28;19936;-75
2023/04/09 09:12:29;;;;;;;;;;;10.30;79.00;;;;;;5053814;28;20602;-69
2023/04/09 09:14:56;;;;;;;;;;;10.30;78.90;;;;;;5044714;28;19928;-69
2023/04/09 09:17:22;;;;;;;;;;;10.30;78.90;;;;;;5062332;28;20417;-73
2023/04/09 09:19:49;;;;;;;;;;;10.30;78.80;;;;;;5060611;28;19940;-70
2023/04/09 09:22:16;;;;;;;;;;;10.30;78.70;;;;;;5050179;28;19929;-69
2023/04/09 09:24:46;;;;;;;;;;;10.30;78.70;;;;;;5046617;28;20002;-73
2023/04/09 09:27:31;;;;;;;;;;;10.30;78.60;;;;;;5058301;28;20016;-69
2023/04/09 09:29:57;;;;;;;;;;;10.30;78.60;;;;;;5051386;28;20350;-72
2023/04/09 09:32:24;;;;;;;;;;;10.40;78.80;;;;;;5058591;28;19944;-73
2023/04/09 09:34:57;;;;;;;;;;;10.40;78.60;;;;;;5058608;28;20468;-73
2023/04/09 09:37:27;;;;;;;;;;;10.40;78.50;;;;;;5057054;28;20469;-73
2023/04/09 09:39:54;;;;;;;;;;;10.40;78.30;;;;;;5054198;28;19928;-73
2023/04/09 09:42:22;;;;;;;;;;;10.40;78.30;;;;;;5055466;28;19928;-72
2023/04/09 09:44:50;;;;;;;;;;;10.40;78.20;;;;;;5054858;28;19982;-70
2023/04/09 09:47:17;;;;;;;;;;;10.40;78.10;;;;;;5051302;28;19936;-71
2023/04/09 09:49:44;;;;;;;;;;;10.50;78.10;;;;;;5044541;28;19936;-73
2023/04/09 09:52:11;;;;;;;;;;;10.50;78.00;;;;;;5050004;28;20378;-73
2023/04/09 09:54:39;;;;;;;;;;;10.50;77.50;;;;;;5061031;28;19989;-73
2023/04/09 09:57:07;;;;;;;;;;;10.50;77.50;;;;;;5055877;28;19928;-73
2023/04/09 09:59:37;;;;;;;;;;;10.60;77.60;;;;;;5053789;28;19932;-71
2023/04/09 10:02:04;;;;;;;;;;;10.60;77.40;;;;;;5055358;28;19929;-71
2023/04/09 10:04:33;;;;;;;;;;;10.70;77.30;;;;;;5053015;28;19935;-71
2023/04/09 10:07:02;;;;;;;;;;;10.70;77.00;;;;;;5052655;28;19932;-70
2023/04/09 10:09:29;;;;;;;;;;;10.70;76.60;;;;;;5061012;28;20046;-71
2023/04/09 10:11:58;;;;;;;;;;;10.80;76.50;;;;;;5057840;28;19924;-71
2023/04/09 10:14:25;;;;;;;;;;;10.80;76.40;;;;;;5052111;28;19929;-70
2023/04/09 10:16:53;;;;;;;;;;;10.80;76.10;;;;;;5058388;28;19924;-70
2023/04/09 10:19:21;;;;;;;;;;;10.80;76.10;;;;;;5057919;28;19932;-70
2023/04/09 10:21:52;;;;;;;;;;;10.90;75.80;;;;;;5047924;28;20669;-72
2023/04/09 10:24:18;;;;;;;;;;;10.90;75.30;;;;;;5058992;28;19934;-69
2023/04/09 10:26:45;;;;;;;;;;;10.90;75.00;;;;;;5045426;28;19929;-72
2023/04/09 10:29:13;;;;;;;;;;;10.90;74.70;;;;;;5050667;28;20556;-69
2023/04/09 10:31:47;;;;;;;;;;;11.00;74.40;;;;;;5050093;28;19929;-70
2023/04/09 10:34:17;;;;;;;;;;;11.00;73.80;;;;;;5057004;28;19935;-70
2023/04/09 10:36:44;;;;;;;;;;;11.10;73.50;;;;;;5055742;28;19935;-69
2023/04/09 10:39:12;;;;;;;;;;;11.10;73.20;;;;;;5058029;28;20401;-70
2023/04/09 10:41:39;;;;;;;;;;;11.20;73.00;;;;;;5048998;28;19925;-70
2023/04/09 10:44:06;;;;;;;;;;;11.20;72.30;;;;;;5051479;28;20035;-73
2023/04/09 10:46:34;;;;;;;;;;;11.20;72.20;;;;;;5049991;28;19925;-70
2023/04/09 10:49:11;;;;;;;;;;;11.20;71.90;;;;;;5056851;28;19924;-68
2023/04/09 10:51:39;;;;;;;;;;;11.30;71.80;;;;;;5055673;28;19956;-72
2023/04/09 10:54:06;;;;;;;;;;;11.40;72.00;;;;;;5055207;28;19933;-70
2023/04/09 10:56:32;;;;;;;;;;;11.30;71.70;;;;;;5056087;28;19931;-74
2023/04/09 10:58:59;;;;;;;;;;;11.40;71.70;;;;;;5055773;28;19936;-72
2023/04/09 11:01:26;;;;;;;;;;;11.40;71.70;;;;;;5051630;28;19949;-69
2023/04/09 11:04:07;;;;;;;;;;;11.40;71.40;;;;;;5055012;28;19960;-70
2023/04/09 11:06:35;;;;;;;;;;;11.50;71.10;;;;;;5052648;28;20310;-70
2023/04/09 11:09:04;;;;;;;;;;;11.50;70.90;;;;;;5052703;28;19943;-69
2023/04/09 11:11:31;;;;;;;;;;;11.50;71.10;;;;;;5055179;28;19929;-69
2023/04/09 11:13:58;;;;;;;;;;;11.60;70.90;;;;;;5052587;28;20369;-73
2023/04/09 11:16:24;;;;;;;;;;;11.80;70.90;;;;;;5047134;28;19930;-74
2023/04/09 11:18:52;;;;;;;;;;;11.60;70.50;;;;;;5052040;28;19929;-71
2023/04/09 11:21:18;;;;;;;;;;;11.60;70.30;;;;;;5050582;28;19983;-70
2023/04/09 11:23:51;;;;;;;;;;;11.70;70.70;;;;;;5049897;28;19936;-70
2023/04/09 11:26:22;;;;;;;;;;;11.60;70.60;;;;;;5048585;28;19929;-69
2023/04/09 11:28:49;;;;;;;;;;;11.70;69.80;;;;;;5046943;28;20413;-70
2023/04/09 11:31:16;;;;;;;;;;;11.80;69.80;;;;;;5048371;28;19939;-69
2023/04/09 11:33:45;;;;;;;;;;;11.80;69.60;;;;;;5051468;28;19929;-71
2023/04/09 11:36:14;;;;;;;;;;;11.80;69.50;;;;;;5056697;28;21579;-71
2023/04/09 11:38:40;;;;;;;;;;;11.80;69.10;;;;;;5050904;28;20302;-69
2023/04/09 11:41:11;;;;;;;;;;;11.90;68.90;;;;;;5048480;28;19928;-73
2023/04/09 11:43:39;;;;;;;;;;;11.90;68.40;;;;;;5053360;28;19928;-71
2023/04/09 11:46:06;;;;;;;;;;;12.00;68.30;;;;;;5050903;28;19929;-69
2023/04/09 11:48:33;;;;;;;;;;;12.10;68.30;;;;;;5048766;28;19928;-69
2023/04/09 11:51:00;;;;;;;;;;;12.10;68.10;;;;;;5052020;28;19928;-70
2023/04/09 11:53:30;;;;;;;;;;;12.20;67.90;;;;;;5055782;28;19928;-72
2023/04/09 11:55:57;;;;;;;;;;;12.30;67.70;;;;;;5049083;28;19929;-70
2023/04/09 11:58:24;;;;;;;;;;;12.30;66.80;;;;;;5056055;28;19929;-69
2023/04/09 12:00:54;;;;;;;;;;;12.30;66.30;;;;;;5053070;28;20741;-70
2023/04/09 12:03:27;;;;;;;;;;;12.40;66.40;;;;;;5054539;28;19939;-70
2023/04/09 12:05:54;;;;;;;;;;;12.40;66.20;;;;;;5049146;28;20819;-73
2023/04/09 12:08:22;;;;;;;;;;;12.50;66.10;;;;;;5053995;28;20415;-71
2023/04/09 12:10:50;;;;;;;;;;;12.50;66.20;;;;;;5050381;28;20015;-73
2023/04/09 12:13:16;;;;;;;;;;;12.50;66.00;;;;;;5046616;28;20719;-69
2023/04/09 12:15:43;;;;;;;;;;;12.50;65.80;;;;;;5049870;28;20734;-70
2023/04/09 12:18:12;;;;;;;;;;;12.50;65.50;;;;;;5053099;28;19925;-73
2023/04/09 12:20:39;;;;;;;;;;;12.50;65.20;;;;;;5054813;28;19936;-74
2023/04/09 12:23:06;;;;;;;;;;;12.60;65.30;;;;;;5058146;28;19929;-71
2023/04/09 12:25:34;;;;;;;;;;;12.60;65.30;;;;;;5052113;28;19928;-73
2023/04/09 12:28:00;;;;;;;;;;;12.60;65.50;;;;;;5046997;28;19975;-70
2023/04/09 12:30:27;;;;;;;;;;;12.60;65.80;;;;;;5048699;28;20015;-74
2023/04/09 12:32:54;;;;;;;;;;;12.70;66.30;;;;;;5054928;28;20352;-71
2023/04/09 12:35:22;;;;;;;;;;;12.60;65.60;;;;;;5054010;28;20432;-72
2023/04/09 12:37:49;;;;;;;;;;;12.60;65.30;;;;;;5048662;28;19935;-71
2023/04/09 12:40:16;;;;;;;;;;;12.70;65.20;;;;;;5051199;28;19929;-71
2023/04/09 12:42:43;;;;;;;;;;;12.70;64.10;;;;;;5048721;28;19932;-73
2023/04/09 12:45:10;;;;;;;;;;;12.70;64.30;;;;;;5051571;28;20500;-73
2023/04/09 12:47:38;;;;;;;;;;;12.80;64.40;;;;;;5049403;28;20739;-70
2023/04/09 12:50:05;;;;;;;;;;;12.90;63.10;;;;;;5053776;28;19928;-70
2023/04/09 12:52:34;;;;;;;;;;;13.00;62.70;;;;;;5054736;28;20346;-72
2023/04/09 12:55:01;;;;;;;;;;;13.00;62.60;;;;;;5055757;28;20328;-71
2023/04/09 12:57:27;;;;;;;;;;;13.10;62.70;;;;;;5056700;28;20383;-72
2023/04/09 12:59:54;;;;;;;;;;;13.20;62.10;;;;;;5055752;28;19975;-73
2023/04/09 13:02:21;;;;;;;;;;;13.30;61.30;;;;;;5059692;28;19929;-73
2023/04/09 13:04:47;;;;;;;;;;;13.40;60.00;;;;;;5056429;28;20011;-74
2023/04/09 13:07:16;;;;;;;;;;;13.50;59.40;;;;;;5062232;28;19933;-72
2023/04/09 13:09:44;;;;;;;;;;;13.60;60.20;;;;;;5054693;28;20049;-73
2023/04/09 13:12:11;;;;;;;;;;;13.70;60.20;;;;;;5050721;28;19999;-73
2023/04/09 13:14:38;;;;;;;;;;;13.80;59.70;;;;;;5060597;28;19965;-73
2023/04/09 13:17:05;;;;;;;;;;;13.90;59.30;;;;;;5052158;28;19960;-73
2023/04/09 13:19:32;;;;;;;;;;;14.00;59.80;;;;;;5059565;28;19994;-69
2023/04/09 13:21:58;;;;;;;;;;;14.10;59.50;;;;;;5062817;28;19981;-72
2023/04/09 13:24:25;;;;;;;;;;;14.20;59.30;;;;;;5060976;28;19936;-71
2023/04/09 13:26:53;;;;;;;;;;;14.30;59.40;;;;;;5058315;28;19928;-71
2023/04/09 13:29:20;;;;;;;;;;;14.30;58.60;;;;;;5055882;28;20288;-71
2023/04/09 13:31:46;;;;;;;;;;;14.40;58.30;;;;;;5053643;28;19928;-73
2023/04/09 13:34:13;;;;;;;;;;;14.50;57.80;;;;;;5058120;28;19936;-73
2023/04/09 13:36:39;;;;;;;;;;;14.50;58.00;;;;;;5052097;28;19932;-73
2023/04/09 13:39:06;;;;;;;;;;;14.60;57.10;;;;;;5049924;28;19968;-71
2023/04/09 13:41:33;;;;;;;;;;;14.60;57.10;;;;;;5055336;28;19948;-71
2023/04/09 13:44:01;;;;;;;;;;;14.70;56.60;;;;;;5050517;28;19968;-72
2023/04/09 13:46:27;;;;;;;;;;;14.70;56.40;;;;;;5050076;28;19929;-72
2023/04/09 13:48:54;;;;;;;;;;;14.80;56.60;;;;;;5052615;28;20405;-73
2023/04/09 13:51:21;;;;;;;;;;;14.80;56.40;;;;;;5051623;28;19928;-72
2023/04/09 13:53:47;;;;;;;;;;;14.90;56.30;;;;;;5058665;28;20373;-74
2023/04/09 13:56:14;;;;;;;;;;;15.00;56.50;;;;;;5057832;28;21304;-74
2023/04/09 13:58:42;;;;;;;;;;;15.00;56.10;;;;;;5059183;28;19934;-71
2023/04/09 14:01:10;;;;;;;;;;;15.10;56.30;;;;;;5055924;28;19929;-71
2023/04/09 14:03:37;;;;;;;;;;;15.10;55.20;;;;;;5054393;28;20043;-72
2023/04/09 14:06:04;;;;;;;;;;;15.20;55.40;;;;;;5052386;28;20056;-73
2023/04/09 14:08:30;;;;;;;;;;;15.20;54.70;;;;;;5056536;28;19944;-70
2023/04/09 14:10:57;;;;;;;;;;;15.30;55.20;;;;;;5061409;28;19932;-73
2023/04/09 14:13:23;;;;;;;;;;;15.30;55.70;;;;;;5059922;28;19928;-72
2023/04/09 14:15:50;;;;;;;;;;;15.40;55.30;;;;;;5051483;28;19983;-70
2023/04/09 14:18:18;;;;;;;;;;;15.40;54.90;;;;;;5052942;28;20673;-71
2023/04/09 14:20:44;;;;;;;;;;;15.40;55.20;;;;;;5049967;28;20361;-73